sensor_id;sensor_type;location;lat;lon;timestamp;P1;durP1;ratioP1;P2;durP2;ratioP2
6973;SDS011;3527;52.376;8.990;2023-03-01T00:01:18;19.73;;;11.87;;
6973;SDS011;3527;52.376;8.990;2023-03-01T00:03:47;16.93;;;11.23;;
6973;SDS011;3527;52.376;8.990;2023-03-01T00:06:14;16.90;;;11.17;;
6973;SDS011;3527;52.376;8.990;2023-03-01T00:08:41;16.90;;;11.17;;
6973;SDS011;3527;52.376;8.990;2023-03-01T00:11:10;16.57;;;10.63;;
6973;SDS011;3527;52.376;8.990;2023-03-01T00:13:41;18.80;;;12.13;;
6973;SDS011;3527;52.376;8.990;2023-03-01T00:16:12;17.43;;;10.67;;
6973;SDS011;3527;52.376;8.990;2023-03-01T00:18:41;19.90;;;11.00;;
6973;SDS011;3527;52.376;8.990;2023-03-01T00:21:08;17.17;;;11.83;;
6973;SDS011;3527;52.376;8.990;2023-03-01T00:23:35;15.70;;;11.00;;
6973;SDS011;3527;52.376;8.990;2023-03-01T00:26:05;18.13;;;11.37;;
6973;SDS011;3527;52.376;8.990;2023-03-01T00:28:33;14.90;;;10.67;;
6973;SDS011;3527;52.376;8.990;2023-03-01T00:31:07;18.63;;;11.63;;
6973;SDS011;3527;52.376;8.990;2023-03-01T00:33:36;18.50;;;11.90;;
6973;SDS011;3527;52.376;8.990;2023-03-01T00:36:03;18.80;;;12.60;;
6973;SDS011;3527;52.376;8.990;2023-03-01T00:38:33;15.83;;;11.40;;
6973;SDS011;3527;52.376;8.990;2023-03-01T00:41:08;16.43;;;11.27;;
6973;SDS011;3527;52.376;8.990;2023-03-01T00:43:37;18.73;;;11.63;;
6973;SDS011;3527;52.376;8.990;2023-03-01T00:46:05;22.33;;;11.03;;
6973;SDS011;3527;52.376;8.990;2023-03-01T00:48:34;18.83;;;12.33;;
6973;SDS011;3527;52.376;8.990;2023-03-01T00:51:08;20.17;;;11.93;;
6973;SDS011;3527;52.376;8.990;2023-03-01T00:53:35;16.23;;;10.50;;
6973;SDS011;3527;52.376;8.990;2023-03-01T00:56:03;15.80;;;11.27;;
6973;SDS011;3527;52.376;8.990;2023-03-01T00:58:31;15.67;;;10.80;;
6973;SDS011;3527;52.376;8.990;2023-03-01T01:00:58;18.03;;;12.37;;
6973;SDS011;3527;52.376;8.990;2023-03-01T01:03:26;16.63;;;11.10;;
6973;SDS011;3527;52.376;8.990;2023-03-01T01:05:53;14.37;;;11.47;;
6973;SDS011;3527;52.376;8.990;2023-03-01T01:08:20;21.40;;;12.30;;
6973;SDS011;3527;52.376;8.990;2023-03-01T01:10:47;19.30;;;12.00;;
6973;SDS011;3527;52.376;8.990;2023-03-01T01:13:14;23.13;;;12.37;;
6973;SDS011;3527;52.376;8.990;2023-03-01T01:15:40;20.70;;;12.93;;
6973;SDS011;3527;52.376;8.990;2023-03-01T01:18:07;19.17;;;11.97;;
6973;SDS011;3527;52.376;8.990;2023-03-01T01:20:34;18.97;;;11.97;;
6973;SDS011;3527;52.376;8.990;2023-03-01T01:23:01;19.87;;;12.37;;
6973;SDS011;3527;52.376;8.990;2023-03-01T01:25:28;18.77;;;12.53;;
6973;SDS011;3527;52.376;8.990;2023-03-01T01:27:55;21.67;;;12.53;;
6973;SDS011;3527;52.376;8.990;2023-03-01T01:30:21;21.87;;;12.37;;
6973;SDS011;3527;52.376;8.990;2023-03-01T01:32:48;21.90;;;13.30;;
6973;SDS011;3527;52.376;8.990;2023-03-01T01:35:15;18.40;;;12.10;;
6973;SDS011;3527;52.376;8.990;2023-03-01T01:37:41;26.07;;;15.17;;
6973;SDS011;3527;52.376;8.990;2023-03-01T01:40:09;21.53;;;13.90;;
6973;SDS011;3527;52.376;8.990;2023-03-01T01:42:38;24.30;;;14.23;;
6973;SDS011;3527;52.376;8.990;2023-03-01T01:48:07;28.23;;;16.47;;
6973;SDS011;3527;52.376;8.990;2023-03-01T01:50:39;33.13;;;18.20;;
6973;SDS011;3527;52.376;8.990;2023-03-01T01:53:16;31.57;;;17.57;;
6973;SDS011;3527;52.376;8.990;2023-03-01T01:55:47;28.67;;;17.57;;
6973;SDS011;3527;52.376;8.990;2023-03-01T01:58:17;32.60;;;17.93;;
6973;SDS011;3527;52.376;8.990;2023-03-01T02:00:47;25.90;;;15.53;;
6973;SDS011;3527;52.376;8.990;2023-03-01T02:03:17;29.50;;;17.17;;
6973;SDS011;3527;52.376;8.990;2023-03-01T02:05:49;33.37;;;18.63;;
6973;SDS011;3527;52.376;8.990;2023-03-01T02:08:22;33.27;;;16.50;;
6973;SDS011;3527;52.376;8.990;2023-03-01T02:10:52;24.53;;;14.13;;
6973;SDS011;3527;52.376;8.990;2023-03-01T02:13:22;24.47;;;15.23;;
6973;SDS011;3527;52.376;8.990;2023-03-01T02:15:49;24.33;;;15.13;;
6973;SDS011;3527;52.376;8.990;2023-03-01T02:18:17;24.60;;;15.77;;
6973;SDS011;3527;52.376;8.990;2023-03-01T02:23:31;24.33;;;15.33;;
6973;SDS011;3527;52.376;8.990;2023-03-01T02:26:06;26.57;;;15.33;;
6973;SDS011;3527;52.376;8.990;2023-03-01T02:28:45;27.00;;;15.27;;
6973;SDS011;3527;52.376;8.990;2023-03-01T02:31:14;24.07;;;14.73;;
6973;SDS011;3527;52.376;8.990;2023-03-01T02:34:11;22.47;;;13.50;;
6973;SDS011;3527;52.376;8.990;2023-03-01T02:36:43;23.53;;;14.47;;
6973;SDS011;3527;52.376;8.990;2023-03-01T02:39:18;22.37;;;14.33;;
6973;SDS011;3527;52.376;8.990;2023-03-01T02:41:53;23.03;;;14.07;;
6973;SDS011;3527;52.376;8.990;2023-03-01T02:44:21;22.17;;;15.10;;
6973;SDS011;3527;52.376;8.990;2023-03-01T02:46:52;23.33;;;14.80;;
6973;SDS011;3527;52.376;8.990;2023-03-01T02:49:28;28.53;;;14.37;;
6973;SDS011;3527;52.376;8.990;2023-03-01T02:54:46;21.30;;;13.70;;
6973;SDS011;3527;52.376;8.990;2023-03-01T02:57:33;24.70;;;14.97;;
6973;SDS011;3527;52.376;8.990;2023-03-01T03:00:09;28.20;;;15.67;;
6973;SDS011;3527;52.376;8.990;2023-03-01T03:02:48;24.33;;;13.97;;
6973;SDS011;3527;52.376;8.990;2023-03-01T03:05:17;23.67;;;15.03;;
6973;SDS011;3527;52.376;8.990;2023-03-01T03:07:46;23.73;;;14.30;;
6973;SDS011;3527;52.376;8.990;2023-03-01T03:10:15;21.77;;;14.37;;
6973;SDS011;3527;52.376;8.990;2023-03-01T03:12:51;24.03;;;13.67;;
6973;SDS011;3527;52.376;8.990;2023-03-01T03:15:22;24.07;;;14.47;;
6973;SDS011;3527;52.376;8.990;2023-03-01T03:17:50;24.27;;;14.47;;
6973;SDS011;3527;52.376;8.990;2023-03-01T03:20:18;20.13;;;13.93;;
6973;SDS011;3527;52.376;8.990;2023-03-01T03:22:49;20.33;;;13.83;;
6973;SDS011;3527;52.376;8.990;2023-03-01T03:25:18;23.07;;;15.20;;
6973;SDS011;3527;52.376;8.990;2023-03-01T03:27:46;23.03;;;14.03;;
6973;SDS011;3527;52.376;8.990;2023-03-01T03:30:18;21.43;;;14.47;;
6973;SDS011;3527;52.376;8.990;2023-03-01T03:32:46;19.70;;;14.17;;
6973;SDS011;3527;52.376;8.990;2023-03-01T03:35:38;19.60;;;12.50;;
6973;SDS011;3527;52.376;8.990;2023-03-01T03:38:09;20.60;;;13.53;;
6973;SDS011;3527;52.376;8.990;2023-03-01T03:40:46;19.93;;;13.57;;
6973;SDS011;3527;52.376;8.990;2023-03-01T03:43:16;22.63;;;14.50;;
6973;SDS011;3527;52.376;8.990;2023-03-01T03:45:44;20.70;;;13.37;;
6973;SDS011;3527;52.376;8.990;2023-03-01T03:48:12;24.63;;;15.43;;
6973;SDS011;3527;52.376;8.990;2023-03-01T03:50:39;26.77;;;14.47;;
6973;SDS011;3527;52.376;8.990;2023-03-01T03:53:08;24.23;;;15.20;;
6973;SDS011;3527;52.376;8.990;2023-03-01T03:55:37;27.07;;;15.13;;
6973;SDS011;3527;52.376;8.990;2023-03-01T03:58:06;23.37;;;14.27;;
6973;SDS011;3527;52.376;8.990;2023-03-01T04:00:35;25.03;;;14.47;;
6973;SDS011;3527;52.376;8.990;2023-03-01T04:03:07;25.97;;;14.87;;
6973;SDS011;3527;52.376;8.990;2023-03-01T04:05:35;23.07;;;14.57;;
6973;SDS011;3527;52.376;8.990;2023-03-01T04:08:02;25.13;;;16.00;;
6973;SDS011;3527;52.376;8.990;2023-03-01T04:10:30;21.53;;;14.63;;
6973;SDS011;3527;52.376;8.990;2023-03-01T04:12:58;29.60;;;16.23;;
6973;SDS011;3527;52.376;8.990;2023-03-01T04:15:25;26.47;;;15.63;;
6973;SDS011;3527;52.376;8.990;2023-03-01T04:17:53;24.17;;;15.03;;
6973;SDS011;3527;52.376;8.990;2023-03-01T04:20:22;28.77;;;16.97;;
6973;SDS011;3527;52.376;8.990;2023-03-01T04:23:01;28.70;;;16.90;;
6973;SDS011;3527;52.376;8.990;2023-03-01T04:25:40;29.07;;;16.67;;
6973;SDS011;3527;52.376;8.990;2023-03-01T04:28:08;28.73;;;16.37;;
6973;SDS011;3527;52.376;8.990;2023-03-01T04:30:36;27.83;;;17.33;;
6973;SDS011;3527;52.376;8.990;2023-03-01T04:33:05;38.97;;;19.70;;
6973;SDS011;3527;52.376;8.990;2023-03-01T04:35:32;36.13;;;20.30;;
6973;SDS011;3527;52.376;8.990;2023-03-01T04:38:01;38.90;;;21.27;;
6973;SDS011;3527;52.376;8.990;2023-03-01T04:40:29;33.50;;;20.47;;
6973;SDS011;3527;52.376;8.990;2023-03-01T04:42:55;42.27;;;22.50;;
6973;SDS011;3527;52.376;8.990;2023-03-01T04:45:22;38.63;;;21.83;;
6973;SDS011;3527;52.376;8.990;2023-03-01T04:47:49;54.27;;;26.17;;
6973;SDS011;3527;52.376;8.990;2023-03-01T04:50:18;67.67;;;34.33;;
6973;SDS011;3527;52.376;8.990;2023-03-01T04:52:50;68.83;;;35.13;;
6973;SDS011;3527;52.376;8.990;2023-03-01T04:55:16;52.93;;;29.23;;
6973;SDS011;3527;52.376;8.990;2023-03-01T04:57:43;44.47;;;24.70;;
6973;SDS011;3527;52.376;8.990;2023-03-01T05:00:11;42.43;;;23.10;;
6973;SDS011;3527;52.376;8.990;2023-03-01T05:02:59;40.60;;;22.47;;
6973;SDS011;3527;52.376;8.990;2023-03-01T05:05:31;39.20;;;21.47;;
6973;SDS011;3527;52.376;8.990;2023-03-01T05:08:05;31.67;;;19.00;;
6973;SDS011;3527;52.376;8.990;2023-03-01T05:10:34;31.33;;;17.90;;
6973;SDS011;3527;52.376;8.990;2023-03-01T05:13:02;31.50;;;18.07;;
6973;SDS011;3527;52.376;8.990;2023-03-01T05:15:30;27.20;;;17.57;;
6973;SDS011;3527;52.376;8.990;2023-03-01T05:17:58;28.63;;;17.50;;
6973;SDS011;3527;52.376;8.990;2023-03-01T05:20:26;26.83;;;16.77;;
6973;SDS011;3527;52.376;8.990;2023-03-01T05:22:56;30.40;;;16.90;;
6973;SDS011;3527;52.376;8.990;2023-03-01T05:25:25;30.67;;;17.97;;
6973;SDS011;3527;52.376;8.990;2023-03-01T05:27:52;30.97;;;17.83;;
6973;SDS011;3527;52.376;8.990;2023-03-01T05:30:19;33.23;;;18.93;;
6973;SDS011;3527;52.376;8.990;2023-03-01T05:32:47;26.10;;;16.43;;
6973;SDS011;3527;52.376;8.990;2023-03-01T05:35:16;29.30;;;17.27;;
6973;SDS011;3527;52.376;8.990;2023-03-01T05:37:45;28.13;;;17.57;;
6973;SDS011;3527;52.376;8.990;2023-03-01T05:40:20;30.47;;;18.00;;
6973;SDS011;3527;52.376;8.990;2023-03-01T05:42:52;28.03;;;17.70;;
6973;SDS011;3527;52.376;8.990;2023-03-01T05:45:21;31.50;;;18.20;;
6973;SDS011;3527;52.376;8.990;2023-03-01T05:47:50;35.00;;;18.70;;
6973;SDS011;3527;52.376;8.990;2023-03-01T05:50:21;29.70;;;18.70;;
6973;SDS011;3527;52.376;8.990;2023-03-01T05:52:54;29.87;;;18.87;;
6973;SDS011;3527;52.376;8.990;2023-03-01T05:55:27;32.73;;;18.43;;
6973;SDS011;3527;52.376;8.990;2023-03-01T05:57:57;33.43;;;19.13;;
6973;SDS011;3527;52.376;8.990;2023-03-01T06:00:25;28.40;;;19.07;;
6973;SDS011;3527;52.376;8.990;2023-03-01T06:02:53;33.63;;;18.17;;
6973;SDS011;3527;52.376;8.990;2023-03-01T06:05:20;32.53;;;18.40;;
6973;SDS011;3527;52.376;8.990;2023-03-01T06:07:48;28.20;;;17.77;;
6973;SDS011;3527;52.376;8.990;2023-03-01T06:10:17;31.93;;;17.57;;
6973;SDS011;3527;52.376;8.990;2023-03-01T06:12:44;29.00;;;17.63;;
6973;SDS011;3527;52.376;8.990;2023-03-01T06:15:12;32.47;;;19.30;;
6973;SDS011;3527;52.376;8.990;2023-03-01T06:17:40;31.97;;;19.53;;
6973;SDS011;3527;52.376;8.990;2023-03-01T06:20:13;28.87;;;17.97;;
6973;SDS011;3527;52.376;8.990;2023-03-01T06:22:45;33.93;;;19.07;;
6973;SDS011;3527;52.376;8.990;2023-03-01T06:25:13;31.03;;;18.60;;
6973;SDS011;3527;52.376;8.990;2023-03-01T06:27:42;30.07;;;18.93;;
6973;SDS011;3527;52.376;8.990;2023-03-01T06:30:10;34.63;;;19.13;;
6973;SDS011;3527;52.376;8.990;2023-03-01T06:32:38;29.50;;;17.77;;
6973;SDS011;3527;52.376;8.990;2023-03-01T06:35:09;33.47;;;18.27;;
6973;SDS011;3527;52.376;8.990;2023-03-01T06:37:40;32.10;;;18.40;;
6973;SDS011;3527;52.376;8.990;2023-03-01T06:40:08;28.73;;;18.87;;
6973;SDS011;3527;52.376;8.990;2023-03-01T06:42:38;31.67;;;19.93;;
6973;SDS011;3527;52.376;8.990;2023-03-01T06:45:06;31.83;;;20.03;;
6973;SDS011;3527;52.376;8.990;2023-03-01T06:47:35;32.33;;;19.30;;
6973;SDS011;3527;52.376;8.990;2023-03-01T06:50:02;29.70;;;19.23;;
6973;SDS011;3527;52.376;8.990;2023-03-01T06:52:29;29.07;;;18.90;;
6973;SDS011;3527;52.376;8.990;2023-03-01T06:54:56;35.97;;;19.27;;
6973;SDS011;3527;52.376;8.990;2023-03-01T06:57:22;40.20;;;21.60;;
6973;SDS011;3527;52.376;8.990;2023-03-01T06:59:49;36.03;;;21.23;;
6973;SDS011;3527;52.376;8.990;2023-03-01T07:02:16;33.53;;;20.23;;
6973;SDS011;3527;52.376;8.990;2023-03-01T07:04:43;29.63;;;19.90;;
6973;SDS011;3527;52.376;8.990;2023-03-01T07:07:10;35.47;;;20.50;;
6973;SDS011;3527;52.376;8.990;2023-03-01T07:09:37;34.37;;;20.70;;
6973;SDS011;3527;52.376;8.990;2023-03-01T07:12:03;35.43;;;20.93;;
6973;SDS011;3527;52.376;8.990;2023-03-01T07:14:30;33.43;;;20.03;;
6973;SDS011;3527;52.376;8.990;2023-03-01T07:16:57;43.40;;;25.73;;
6973;SDS011;3527;52.376;8.990;2023-03-01T07:19:24;42.23;;;26.17;;
6973;SDS011;3527;52.376;8.990;2023-03-01T07:21:50;43.03;;;27.07;;
6973;SDS011;3527;52.376;8.990;2023-03-01T07:24:17;40.30;;;27.30;;
6973;SDS011;3527;52.376;8.990;2023-03-01T07:26:47;46.07;;;27.77;;
6973;SDS011;3527;52.376;8.990;2023-03-01T07:29:15;43.20;;;26.63;;
6973;SDS011;3527;52.376;8.990;2023-03-01T07:31:43;38.37;;;24.90;;
6973;SDS011;3527;52.376;8.990;2023-03-01T07:34:10;42.73;;;27.90;;
6973;SDS011;3527;52.376;8.990;2023-03-01T07:36:37;43.30;;;26.00;;
6973;SDS011;3527;52.376;8.990;2023-03-01T07:39:05;38.47;;;26.23;;
6973;SDS011;3527;52.376;8.990;2023-03-01T07:41:32;38.40;;;25.27;;
6973;SDS011;3527;52.376;8.990;2023-03-01T07:43:59;45.27;;;28.63;;
6973;SDS011;3527;52.376;8.990;2023-03-01T07:46:26;43.80;;;27.23;;
6973;SDS011;3527;52.376;8.990;2023-03-01T07:48:53;39.70;;;26.07;;
6973;SDS011;3527;52.376;8.990;2023-03-01T07:51:20;37.77;;;25.33;;
6973;SDS011;3527;52.376;8.990;2023-03-01T07:53:47;36.70;;;23.30;;
6973;SDS011;3527;52.376;8.990;2023-03-01T07:56:15;38.97;;;24.03;;
6973;SDS011;3527;52.376;8.990;2023-03-01T07:58:44;37.03;;;21.83;;
6973;SDS011;3527;52.376;8.990;2023-03-01T08:01:12;34.03;;;21.70;;
6973;SDS011;3527;52.376;8.990;2023-03-01T08:03:41;33.33;;;21.93;;
6973;SDS011;3527;52.376;8.990;2023-03-01T08:06:08;30.40;;;21.07;;
6973;SDS011;3527;52.376;8.990;2023-03-01T08:08:37;31.33;;;21.07;;
6973;SDS011;3527;52.376;8.990;2023-03-01T08:11:05;31.67;;;20.73;;
6973;SDS011;3527;52.376;8.990;2023-03-01T08:13:33;28.73;;;20.03;;
6973;SDS011;3527;52.376;8.990;2023-03-01T08:16:01;25.43;;;18.63;;
6973;SDS011;3527;52.376;8.990;2023-03-01T08:18:28;36.03;;;21.00;;
6973;SDS011;3527;52.376;8.990;2023-03-01T08:20:55;30.23;;;19.07;;
6973;SDS011;3527;52.376;8.990;2023-03-01T08:23:22;29.07;;;19.03;;
6973;SDS011;3527;52.376;8.990;2023-03-01T08:25:49;28.13;;;19.07;;
6973;SDS011;3527;52.376;8.990;2023-03-01T08:28:16;25.27;;;17.37;;
6973;SDS011;3527;52.376;8.990;2023-03-01T08:30:42;27.77;;;19.00;;
6973;SDS011;3527;52.376;8.990;2023-03-01T08:33:09;26.20;;;18.17;;
6973;SDS011;3527;52.376;8.990;2023-03-01T08:35:36;24.10;;;17.03;;
6973;SDS011;3527;52.376;8.990;2023-03-01T08:38:03;24.33;;;16.77;;
6973;SDS011;3527;52.376;8.990;2023-03-01T08:40:29;23.00;;;16.93;;
6973;SDS011;3527;52.376;8.990;2023-03-01T08:42:57;20.70;;;14.87;;
6973;SDS011;3527;52.376;8.990;2023-03-01T08:45:24;19.63;;;14.73;;
6973;SDS011;3527;52.376;8.990;2023-03-01T08:47:54;19.07;;;14.17;;
6973;SDS011;3527;52.376;8.990;2023-03-01T08:50:21;19.47;;;13.67;;
6973;SDS011;3527;52.376;8.990;2023-03-01T08:52:49;18.53;;;13.00;;
6973;SDS011;3527;52.376;8.990;2023-03-01T08:55:15;17.43;;;12.77;;
6973;SDS011;3527;52.376;8.990;2023-03-01T08:57:43;17.63;;;12.30;;
6973;SDS011;3527;52.376;8.990;2023-03-01T09:00:10;18.20;;;12.77;;
6973;SDS011;3527;52.376;8.990;2023-03-01T09:02:37;16.80;;;11.27;;
6973;SDS011;3527;52.376;8.990;2023-03-01T09:05:05;18.60;;;11.33;;
6973;SDS011;3527;52.376;8.990;2023-03-01T09:07:31;18.63;;;11.07;;
6973;SDS011;3527;52.376;8.990;2023-03-01T09:09:58;18.83;;;12.13;;
6973;SDS011;3527;52.376;8.990;2023-03-01T09:12:25;15.13;;;11.00;;
6973;SDS011;3527;52.376;8.990;2023-03-01T09:14:52;18.60;;;12.50;;
6973;SDS011;3527;52.376;8.990;2023-03-01T09:17:18;17.70;;;12.53;;
6973;SDS011;3527;52.376;8.990;2023-03-01T09:19:47;21.70;;;12.07;;
6973;SDS011;3527;52.376;8.990;2023-03-01T09:22:15;18.37;;;11.57;;
6973;SDS011;3527;52.376;8.990;2023-03-01T09:24:41;15.60;;;9.83;;
6973;SDS011;3527;52.376;8.990;2023-03-01T09:27:08;15.77;;;10.60;;
6973;SDS011;3527;52.376;8.990;2023-03-01T09:29:36;14.83;;;10.90;;
6973;SDS011;3527;52.376;8.990;2023-03-01T09:32:03;14.03;;;8.77;;
6973;SDS011;3527;52.376;8.990;2023-03-01T09:34:30;13.47;;;9.03;;
6973;SDS011;3527;52.376;8.990;2023-03-01T09:36:57;13.53;;;8.23;;
6973;SDS011;3527;52.376;8.990;2023-03-01T09:39:25;12.97;;;9.80;;
6973;SDS011;3527;52.376;8.990;2023-03-01T09:42:00;13.47;;;9.17;;
6973;SDS011;3527;52.376;8.990;2023-03-01T09:44:45;12.53;;;9.27;;
6973;SDS011;3527;52.376;8.990;2023-03-01T09:47:18;13.77;;;8.40;;
6973;SDS011;3527;52.376;8.990;2023-03-01T09:50:08;11.87;;;8.97;;
6973;SDS011;3527;52.376;8.990;2023-03-01T09:52:45;10.87;;;7.33;;
6973;SDS011;3527;52.376;8.990;2023-03-01T10:01:40;9.67;;;6.67;;
6973;SDS011;3527;52.376;8.990;2023-03-01T10:06:54;9.53;;;6.20;;
6973;SDS011;3527;52.376;8.990;2023-03-01T10:09:29;7.83;;;6.37;;
6973;SDS011;3527;52.376;8.990;2023-03-01T10:12:00;12.90;;;6.40;;
6973;SDS011;3527;52.376;8.990;2023-03-01T10:17:26;9.97;;;5.97;;
6973;SDS011;3527;52.376;8.990;2023-03-01T10:22:51;10.97;;;6.40;;
6973;SDS011;3527;52.376;8.990;2023-03-01T10:30:50;10.07;;;6.40;;
6973;SDS011;3527;52.376;8.990;2023-03-01T10:33:22;10.80;;;6.37;;
6973;SDS011;3527;52.376;8.990;2023-03-01T10:35:52;8.30;;;5.53;;
6973;SDS011;3527;52.376;8.990;2023-03-01T10:38:19;9.83;;;6.00;;
6973;SDS011;3527;52.376;8.990;2023-03-01T10:43:17;9.90;;;6.43;;
6973;SDS011;3527;52.376;8.990;2023-03-01T10:45:44;10.50;;;6.47;;
6973;SDS011;3527;52.376;8.990;2023-03-01T10:48:13;10.03;;;6.60;;
6973;SDS011;3527;52.376;8.990;2023-03-01T10:53:29;11.03;;;6.57;;
6973;SDS011;3527;52.376;8.990;2023-03-01T10:56:05;8.43;;;6.00;;
6973;SDS011;3527;52.376;8.990;2023-03-01T10:58:35;9.63;;;5.73;;
6973;SDS011;3527;52.376;8.990;2023-03-01T11:01:05;9.00;;;5.67;;
6973;SDS011;3527;52.376;8.990;2023-03-01T11:03:41;7.47;;;5.50;;
6973;SDS011;3527;52.376;8.990;2023-03-01T11:08:42;9.40;;;5.50;;
6973;SDS011;3527;52.376;8.990;2023-03-01T11:16:22;9.27;;;5.17;;
6973;SDS011;3527;52.376;8.990;2023-03-01T11:21:57;8.83;;;6.07;;
6973;SDS011;3527;52.376;8.990;2023-03-01T11:24:44;9.73;;;5.40;;
6973;SDS011;3527;52.376;8.990;2023-03-01T11:27:30;7.10;;;5.03;;
6973;SDS011;3527;52.376;8.990;2023-03-01T11:32:31;7.20;;;5.07;;
6973;SDS011;3527;52.376;8.990;2023-03-01T11:35:24;7.43;;;4.43;;
6973;SDS011;3527;52.376;8.990;2023-03-01T11:40:33;7.93;;;4.90;;
6973;SDS011;3527;52.376;8.990;2023-03-01T11:51:51;8.03;;;4.40;;
6973;SDS011;3527;52.376;8.990;2023-03-01T12:10:27;5.83;;;4.37;;
6973;SDS011;3527;52.376;8.990;2023-03-01T12:15:33;7.80;;;4.80;;
6973;SDS011;3527;52.376;8.990;2023-03-01T12:37:51;6.90;;;3.80;;
6973;SDS011;3527;52.376;8.990;2023-03-01T12:40:33;6.77;;;4.03;;
6973;SDS011;3527;52.376;8.990;2023-03-01T12:46:33;7.10;;;4.50;;
6973;SDS011;3527;52.376;8.990;2023-03-01T12:49:08;6.40;;;3.80;;
6973;SDS011;3527;52.376;8.990;2023-03-01T12:51:37;14.27;;;3.97;;
6973;SDS011;3527;52.376;8.990;2023-03-01T12:54:07;5.87;;;3.63;;
6973;SDS011;3527;52.376;8.990;2023-03-01T12:56:42;6.57;;;3.80;;
6973;SDS011;3527;52.376;8.990;2023-03-01T12:59:15;7.00;;;4.00;;
6973;SDS011;3527;52.376;8.990;2023-03-01T13:01:52;5.73;;;3.47;;
6973;SDS011;3527;52.376;8.990;2023-03-01T13:06:55;5.37;;;3.37;;
6973;SDS011;3527;52.376;8.990;2023-03-01T13:15:30;4.77;;;2.87;;
6973;SDS011;3527;52.376;8.990;2023-03-01T13:18:03;5.00;;;3.20;;
6973;SDS011;3527;52.376;8.990;2023-03-01T13:26:05;5.63;;;3.57;;
6973;SDS011;3527;52.376;8.990;2023-03-01T13:46:56;4.63;;;2.67;;
6973;SDS011;3527;52.376;8.990;2023-03-01T13:49:42;4.90;;;2.93;;
6973;SDS011;3527;52.376;8.990;2023-03-01T13:55:05;3.83;;;2.80;;
6973;SDS011;3527;52.376;8.990;2023-03-01T13:57:54;5.40;;;2.93;;
6973;SDS011;3527;52.376;8.990;2023-03-01T14:00:37;3.77;;;2.87;;
6973;SDS011;3527;52.376;8.990;2023-03-01T14:03:08;7.20;;;2.90;;
6973;SDS011;3527;52.376;8.990;2023-03-01T14:05:36;4.50;;;2.63;;
6973;SDS011;3527;52.376;8.990;2023-03-01T14:08:04;5.10;;;2.77;;
6973;SDS011;3527;52.376;8.990;2023-03-01T14:10:35;4.57;;;3.03;;
6973;SDS011;3527;52.376;8.990;2023-03-01T14:13:25;4.37;;;3.00;;
6973;SDS011;3527;52.376;8.990;2023-03-01T14:16:29;4.87;;;2.87;;
6973;SDS011;3527;52.376;8.990;2023-03-01T14:19:16;4.43;;;2.97;;
6973;SDS011;3527;52.376;8.990;2023-03-01T14:24:50;3.53;;;2.57;;
6973;SDS011;3527;52.376;8.990;2023-03-01T14:27:19;5.67;;;2.97;;
6973;SDS011;3527;52.376;8.990;2023-03-01T14:30:00;4.93;;;3.23;;
6973;SDS011;3527;52.376;8.990;2023-03-01T14:32:30;3.77;;;2.97;;
6973;SDS011;3527;52.376;8.990;2023-03-01T14:34:59;6.17;;;2.77;;
6973;SDS011;3527;52.376;8.990;2023-03-01T14:37:30;5.07;;;2.60;;
6973;SDS011;3527;52.376;8.990;2023-03-01T14:40:00;3.63;;;2.60;;
6973;SDS011;3527;52.376;8.990;2023-03-01T14:42:31;3.70;;;2.57;;
6973;SDS011;3527;52.376;8.990;2023-03-01T14:45:02;5.00;;;3.40;;
6973;SDS011;3527;52.376;8.990;2023-03-01T14:47:32;4.53;;;3.23;;
6973;SDS011;3527;52.376;8.990;2023-03-01T14:50:09;5.47;;;3.07;;
6973;SDS011;3527;52.376;8.990;2023-03-01T14:52:57;4.13;;;2.83;;
6973;SDS011;3527;52.376;8.990;2023-03-01T14:55:28;4.23;;;2.90;;
6973;SDS011;3527;52.376;8.990;2023-03-01T14:57:58;4.70;;;3.13;;
6973;SDS011;3527;52.376;8.990;2023-03-01T15:00:28;5.10;;;3.20;;
6973;SDS011;3527;52.376;8.990;2023-03-01T15:03:00;3.93;;;2.67;;
6973;SDS011;3527;52.376;8.990;2023-03-01T15:05:36;5.00;;;3.17;;
6973;SDS011;3527;52.376;8.990;2023-03-01T15:08:03;4.33;;;3.10;;
6973;SDS011;3527;52.376;8.990;2023-03-01T15:10:32;6.07;;;3.07;;
6973;SDS011;3527;52.376;8.990;2023-03-01T15:13:19;4.30;;;3.10;;
6973;SDS011;3527;52.376;8.990;2023-03-01T15:15:50;3.20;;;2.40;;
6973;SDS011;3527;52.376;8.990;2023-03-01T15:18:21;4.37;;;2.60;;
6973;SDS011;3527;52.376;8.990;2023-03-01T15:20:51;5.27;;;2.83;;
6973;SDS011;3527;52.376;8.990;2023-03-01T15:23:26;7.43;;;3.20;;
6973;SDS011;3527;52.376;8.990;2023-03-01T15:25:55;6.57;;;3.10;;
6973;SDS011;3527;52.376;8.990;2023-03-01T15:28:30;6.83;;;3.30;;
6973;SDS011;3527;52.376;8.990;2023-03-01T15:31:43;4.83;;;3.00;;
6973;SDS011;3527;52.376;8.990;2023-03-01T15:34:19;5.77;;;3.20;;
6973;SDS011;3527;52.376;8.990;2023-03-01T15:36:48;4.57;;;3.27;;
6973;SDS011;3527;52.376;8.990;2023-03-01T15:39:32;4.87;;;3.03;;
6973;SDS011;3527;52.376;8.990;2023-03-01T15:44:40;4.90;;;3.13;;
6973;SDS011;3527;52.376;8.990;2023-03-01T15:47:23;4.43;;;3.20;;
6973;SDS011;3527;52.376;8.990;2023-03-01T15:49:53;4.37;;;3.23;;
6973;SDS011;3527;52.376;8.990;2023-03-01T15:55:02;5.33;;;2.63;;
6973;SDS011;3527;52.376;8.990;2023-03-01T15:57:32;5.00;;;3.40;;
6973;SDS011;3527;52.376;8.990;2023-03-01T15:59:59;5.20;;;3.63;;
6973;SDS011;3527;52.376;8.990;2023-03-01T16:02:26;4.43;;;2.97;;
6973;SDS011;3527;52.376;8.990;2023-03-01T16:04:52;5.53;;;3.00;;
6973;SDS011;3527;52.376;8.990;2023-03-01T16:07:20;5.33;;;3.47;;
6973;SDS011;3527;52.376;8.990;2023-03-01T16:09:46;4.87;;;3.03;;
6973;SDS011;3527;52.376;8.990;2023-03-01T16:12:14;8.73;;;3.07;;
6973;SDS011;3527;52.376;8.990;2023-03-01T16:14:42;6.90;;;3.50;;
6973;SDS011;3527;52.376;8.990;2023-03-01T16:17:09;5.27;;;3.43;;
6973;SDS011;3527;52.376;8.990;2023-03-01T16:19:39;5.07;;;3.47;;
6973;SDS011;3527;52.376;8.990;2023-03-01T16:22:10;5.30;;;3.27;;
6973;SDS011;3527;52.376;8.990;2023-03-01T16:24:37;3.53;;;2.60;;
6973;SDS011;3527;52.376;8.990;2023-03-01T16:27:03;4.93;;;3.27;;
6973;SDS011;3527;52.376;8.990;2023-03-01T16:29:30;6.47;;;3.50;;
6973;SDS011;3527;52.376;8.990;2023-03-01T16:31:59;4.27;;;2.87;;
6973;SDS011;3527;52.376;8.990;2023-03-01T16:34:27;5.03;;;3.20;;
6973;SDS011;3527;52.376;8.990;2023-03-01T16:36:54;6.07;;;3.40;;
6973;SDS011;3527;52.376;8.990;2023-03-01T16:39:21;5.10;;;3.07;;
6973;SDS011;3527;52.376;8.990;2023-03-01T16:41:47;5.70;;;3.23;;
6973;SDS011;3527;52.376;8.990;2023-03-01T16:44:14;7.43;;;3.20;;
6973;SDS011;3527;52.376;8.990;2023-03-01T16:46:41;4.77;;;3.10;;
6973;SDS011;3527;52.376;8.990;2023-03-01T16:49:09;4.77;;;3.30;;
6973;SDS011;3527;52.376;8.990;2023-03-01T16:51:36;7.00;;;3.07;;
6973;SDS011;3527;52.376;8.990;2023-03-01T16:54:03;5.27;;;3.07;;
6973;SDS011;3527;52.376;8.990;2023-03-01T16:56:30;8.17;;;3.10;;
6973;SDS011;3527;52.376;8.990;2023-03-01T16:59:00;5.27;;;3.00;;
6973;SDS011;3527;52.376;8.990;2023-03-01T17:01:31;5.93;;;3.67;;
6973;SDS011;3527;52.376;8.990;2023-03-01T17:04:05;4.70;;;3.03;;
6973;SDS011;3527;52.376;8.990;2023-03-01T17:06:33;5.17;;;3.07;;
6973;SDS011;3527;52.376;8.990;2023-03-01T17:08:59;5.77;;;3.40;;
6973;SDS011;3527;52.376;8.990;2023-03-01T17:11:26;6.03;;;3.23;;
6973;SDS011;3527;52.376;8.990;2023-03-01T17:13:53;6.03;;;3.40;;
6973;SDS011;3527;52.376;8.990;2023-03-01T17:16:20;6.10;;;3.40;;
6973;SDS011;3527;52.376;8.990;2023-03-01T17:18:47;5.27;;;3.43;;
6973;SDS011;3527;52.376;8.990;2023-03-01T17:21:14;6.43;;;3.60;;
6973;SDS011;3527;52.376;8.990;2023-03-01T17:23:42;8.83;;;4.80;;
6973;SDS011;3527;52.376;8.990;2023-03-01T17:26:10;10.50;;;4.87;;
6973;SDS011;3527;52.376;8.990;2023-03-01T17:28:39;7.53;;;4.13;;
6973;SDS011;3527;52.376;8.990;2023-03-01T17:31:06;7.37;;;3.87;;
6973;SDS011;3527;52.376;8.990;2023-03-01T17:33:33;10.37;;;5.83;;
6973;SDS011;3527;52.376;8.990;2023-03-01T17:36:00;8.77;;;3.90;;
6973;SDS011;3527;52.376;8.990;2023-03-01T17:38:27;5.93;;;3.50;;
6973;SDS011;3527;52.376;8.990;2023-03-01T17:40:54;6.37;;;3.80;;